Little Lake, CA (93542)

7:36 PM PST on January 26, 2015 (GMT -0800)
NonFedAWOS INYOKERN CA US SUPERAWOS | Change Station
CLOSE
Current Station
Personal Weather Station
Location: Pearsonville, CA
Elevation: 2455 ft
Nearby Weather Stations

Elev 2455 ft 35.66 °N, 117.83 °W | Updated 41 minutes ago

Overcast
Overcast
52 °F
Feels Like 52 °F
N
0
Wind Variable Wind from North
Gusts 0.0 mph

Today
High -- | Low -- °F
--% Chance of Precip.
Yesterday
High -- | Low -- °F
Precip. -- in
6:56 AM 5:12 PM
Waxing Crescent, 49% visible
Pressure 30.14 in
Visibility 9.0 miles
Clouds Scattered Clouds 4700 ft
Overcast 6000 ft
Dew Point 46 °F
Humidity 82%
Rainfall -999.00 in
Snow Depth Not available.
UV 0 out of 12
Pollen 5.40 out of 12
Air Quality Not available.
Flu Activity Not available.
METAR KNID 270256Z 14003KT 9SM -RA SCT047 OVC060 11/09 A3012 RMK AO2 RAB30 SLP205 P0002 60008 T01060089 55010 $

More Conditions Fewer Conditions

Pressure 30.14 in
Visibility 9.0 miles
Clouds Scattered Clouds 4700 ft
Overcast 6000 ft
Dew Point 46 °F
Humidity 82%
Rainfall -999.00 in
Snow Depth Not available.
UV 0 out of 12
Pollen 5.40 out of 12
Air Quality Not available.
Flu Activity Not available.
METAR KNID 270256Z 14003KT 9SM -RA SCT047 OVC060 11/09 A3012 RMK AO2 RAB30 SLP205 P0002 60008 T01060089 55010 $

More Conditions Fewer Conditions

10-Day Weather Forecast

Almanac

Astronomy

Jan. 26, 2015 Rise Set
Actual Time
Civil Twilight
Nautical Twilight
Astronomical Twilight
Moon
Length of Visible Light
Length of Day
Tomorrow will be .
, % of the Moon is Illuminated

Today's Extremes

State Highs State Lows

Community

WunderPhotos

Upload Photos

1,790,502 photos uploaded!

WunderBlogs® & News

Nearby

Air Quality

  Air Quality AQ Index Pollutant
Not available.

Snow Depth

Station Depth Elevation

Earthquake Activity

City Distance Mag. Time & Date
Minimum magnitude displayed is 2.5.

Coastal Water Temperatures

Place Temperature

Nearby Weather Stations